createdAt,value
2018-06-27T00:01:28.622Z,6.60
2018-06-27T00:03:57.086Z,5.37
2018-06-27T00:06:25.628Z,6.93
2018-06-27T00:08:54.186Z,6.83
2018-06-27T00:11:22.707Z,9.37
2018-06-27T00:13:51.206Z,5.60
2018-06-27T00:16:19.711Z,6.37
2018-06-27T00:18:48.250Z,7.30
2018-06-27T00:21:16.778Z,5.20
2018-06-27T00:23:45.272Z,6.23
2018-06-27T00:26:13.766Z,8.10
2018-06-27T00:28:42.242Z,6.20
2018-06-27T00:31:10.806Z,10.33
2018-06-27T00:33:39.446Z,6.13
2018-06-27T00:36:07.919Z,6.87
2018-06-27T00:38:36.429Z,8.00
2018-06-27T00:41:04.973Z,8.37
2018-06-27T00:43:33.518Z,8.03
2018-06-27T00:46:02.018Z,9.03
2018-06-27T00:48:30.529Z,6.57
2018-06-27T00:50:59.048Z,8.97
2018-06-27T00:53:32.790Z,7.03
2018-06-27T00:56:01.320Z,6.50
2018-06-27T00:58:29.810Z,9.17
2018-06-27T01:00:58.328Z,7.93
2018-06-27T01:03:26.914Z,10.07
2018-06-27T01:05:55.450Z,7.00
2018-06-27T01:08:24.010Z,7.63
2018-06-27T01:10:52.490Z,6.73
2018-06-27T01:13:21.470Z,7.90
2018-06-27T01:15:49.983Z,8.73
2018-06-27T01:18:18.462Z,8.57
2018-06-27T01:20:47.114Z,9.97
2018-06-27T01:23:15.651Z,7.57
2018-06-27T01:25:44.134Z,7.70
2018-06-27T01:28:12.618Z,7.57
2018-06-27T01:30:41.165Z,7.30
2018-06-27T01:33:09.706Z,7.77
2018-06-27T01:35:38.230Z,7.43
2018-06-27T01:38:06.762Z,8.43
2018-06-27T01:40:35.298Z,8.63
2018-06-27T01:43:03.810Z,9.43
2018-06-27T01:45:32.306Z,8.80
2018-06-27T01:48:00.886Z,9.17
2018-06-27T01:50:29.362Z,9.70
2018-06-27T01:52:57.866Z,8.40
2018-06-27T01:55:26.867Z,9.23
2018-06-27T01:57:55.790Z,9.00
2018-06-27T02:00:24.287Z,8.40
2018-06-27T02:02:52.785Z,8.70
2018-06-27T02:05:21.299Z,9.40
2018-06-27T02:07:49.952Z,8.87
2018-06-27T02:10:18.429Z,7.53
2018-06-27T02:12:46.911Z,8.07
2018-06-27T02:15:15.484Z,10.00
2018-06-27T02:17:44.105Z,8.83
2018-06-27T02:20:12.595Z,10.07
2018-06-27T02:22:41.292Z,9.57
2018-06-27T02:25:09.836Z,10.20
2018-06-27T02:27:38.421Z,11.03
2018-06-27T02:30:07.075Z,11.97
2018-06-27T02:32:35.756Z,11.47
2018-06-27T02:35:04.581Z,9.23
2018-06-27T02:37:33.065Z,10.10
2018-06-27T02:40:01.650Z,9.53
2018-06-27T02:42:30.311Z,9.47
2018-06-27T02:44:58.803Z,9.73
2018-06-27T02:47:27.479Z,9.17
2018-06-27T02:49:56.058Z,9.73
2018-06-27T02:52:24.555Z,8.93
2018-06-27T02:54:53.057Z,11.07
2018-06-27T02:57:21.614Z,10.23
2018-06-27T02:59:50.143Z,9.93
2018-06-27T03:02:18.657Z,9.63
2018-06-27T03:04:47.210Z,8.93
2018-06-27T03:07:15.690Z,11.03
2018-06-27T03:09:44.245Z,12.37
2018-06-27T03:12:12.751Z,8.27
2018-06-27T03:14:41.226Z,9.90
2018-06-27T03:17:09.783Z,9.27
2018-06-27T03:19:38.295Z,8.83
2018-06-27T03:22:06.776Z,9.33
2018-06-27T03:24:35.254Z,8.90
2018-06-27T03:27:03.744Z,10.57
2018-06-27T03:29:32.430Z,8.67
2018-06-27T03:32:00.971Z,9.33
2018-06-27T03:34:29.472Z,9.07
2018-06-27T03:36:58.063Z,8.60
2018-06-27T03:39:26.849Z,10.77
2018-06-27T03:41:55.330Z,10.53
2018-06-27T03:44:23.853Z,8.83
2018-06-27T03:46:52.414Z,9.73
2018-06-27T03:49:20.891Z,9.77
2018-06-27T03:51:49.421Z,10.40
2018-06-27T03:54:17.940Z,8.43
2018-06-27T03:56:46.426Z,7.90
2018-06-27T03:59:14.947Z,10.17
2018-06-27T04:01:43.426Z,8.47
2018-06-27T04:04:11.918Z,9.87
2018-06-27T04:06:40.430Z,10.13
2018-06-27T04:09:10.259Z,10.83
2018-06-27T04:11:39.214Z,9.13
2018-06-27T04:14:07.794Z,10.73
2018-06-27T04:16:36.943Z,9.43
2018-06-27T04:19:05.463Z,9.27
2018-06-27T04:21:33.926Z,10.80
2018-06-27T04:24:02.411Z,11.37
2018-06-27T04:26:31.415Z,9.43
2018-06-27T04:28:59.987Z,7.80
2018-06-27T04:31:28.448Z,9.13
2018-06-27T04:33:56.954Z,11.50
2018-06-27T04:36:25.525Z,10.97
2018-06-27T04:38:54.073Z,8.57
2018-06-27T04:41:22.634Z,9.20
2018-06-27T04:43:51.118Z,8.90
2018-06-27T04:46:19.674Z,9.70
2018-06-27T04:48:48.258Z,7.83
2018-06-27T04:51:17.216Z,8.13
2018-06-27T04:53:45.766Z,10.00
2018-06-27T04:56:14.227Z,7.83
2018-06-27T04:58:42.710Z,9.23
2018-06-27T05:01:11.230Z,8.97
2018-06-27T05:03:39.441Z,9.73
2018-06-27T05:06:07.995Z,11.13
2018-06-27T05:08:36.504Z,8.87
2018-06-27T05:11:05.063Z,9.10
2018-06-27T05:13:33.578Z,10.40
2018-06-27T05:16:02.111Z,9.90
2018-06-27T05:18:30.576Z,8.53
2018-06-27T05:20:59.282Z,9.33
2018-06-27T05:23:27.760Z,11.83
2018-06-27T05:25:56.226Z,12.13
2018-06-27T05:28:24.821Z,13.40
2018-06-27T05:30:53.343Z,12.73
2018-06-27T05:33:21.811Z,9.07
2018-06-27T05:35:50.322Z,11.77
2018-06-27T05:38:18.834Z,9.77
2018-06-27T05:40:47.331Z,11.83
2018-06-27T05:43:15.878Z,8.97
2018-06-27T05:45:44.347Z,11.97
2018-06-27T05:48:12.882Z,8.97
2018-06-27T05:50:41.404Z,9.70
2018-06-27T05:53:09.896Z,10.90
2018-06-27T05:55:38.402Z,8.57
2018-06-27T05:58:06.964Z,9.87
2018-06-27T06:00:35.426Z,14.80
2018-06-27T06:03:04.066Z,10.53
2018-06-27T06:05:32.546Z,9.33
2018-06-27T06:08:01.154Z,9.60
2018-06-27T06:10:29.618Z,8.40
2018-06-27T06:12:58.208Z,9.53
2018-06-27T06:15:26.384Z,10.57
2018-06-27T06:17:54.850Z,7.40
2018-06-27T06:20:23.348Z,6.70
2018-06-27T06:22:51.534Z,7.17
2018-06-27T06:25:20.120Z,6.83
2018-06-27T06:27:48.686Z,5.73
2018-06-27T06:30:17.222Z,8.73
2018-06-27T06:32:45.732Z,6.70
2018-06-27T06:35:14.195Z,6.27
2018-06-27T06:37:42.666Z,5.57
2018-06-27T06:40:11.201Z,6.63
2018-06-27T06:42:39.720Z,6.47
2018-06-27T06:45:08.222Z,6.53
2018-06-27T06:47:36.700Z,6.37
2018-06-27T06:50:05.598Z,6.03
2018-06-27T06:52:34.106Z,6.73
2018-06-27T06:55:02.580Z,7.33
2018-06-27T06:57:31.058Z,6.33
2018-06-27T06:59:59.565Z,7.93
2018-06-27T07:02:27.786Z,6.20
2018-06-27T07:04:56.257Z,6.03
2018-06-27T07:07:24.777Z,5.23
2018-06-27T07:09:53.290Z,5.90
2018-06-27T07:12:21.745Z,6.10
2018-06-27T07:14:50.301Z,6.80
2018-06-27T07:17:18.802Z,5.40
2018-06-27T07:19:47.279Z,6.53
2018-06-27T07:22:15.857Z,7.33
2018-06-27T07:24:44.413Z,6.17
2018-06-27T07:27:13.018Z,5.63
2018-06-27T07:29:41.617Z,5.73
2018-06-27T07:32:10.131Z,7.87
2018-06-27T07:34:38.683Z,6.13
2018-06-27T07:37:07.205Z,5.87
2018-06-27T07:39:35.703Z,6.73
2018-06-27T07:42:04.279Z,7.33
2018-06-27T07:44:32.939Z,7.70
2018-06-27T07:47:01.402Z,8.87
2018-06-27T07:49:29.903Z,5.83
2018-06-27T07:51:58.496Z,6.93
2018-06-27T07:54:27.010Z,7.20
2018-06-27T07:56:55.522Z,6.87
2018-06-27T07:59:23.990Z,8.97
2018-06-27T08:01:52.456Z,8.07
2018-06-27T08:04:21.006Z,7.07
2018-06-27T08:06:49.459Z,7.17
2018-06-27T08:09:17.940Z,6.83
2018-06-27T08:11:46.438Z,7.53
2018-06-27T08:14:14.963Z,6.07
2018-06-27T08:16:43.503Z,6.37
2018-06-27T08:19:12.003Z,7.00
2018-06-27T08:21:40.586Z,7.37
2018-06-27T08:24:09.212Z,6.63
2018-06-27T08:26:37.682Z,6.60
2018-06-27T08:29:06.182Z,6.67
2018-06-27T08:31:34.687Z,5.70
2018-06-27T08:34:03.223Z,6.00
2018-06-27T08:36:31.703Z,6.20
2018-06-27T08:39:00.244Z,6.40
2018-06-27T08:41:28.779Z,5.23
2018-06-27T08:43:57.278Z,5.87
2018-06-27T08:46:25.778Z,5.17
2018-06-27T08:48:54.444Z,5.20
2018-06-27T08:51:22.928Z,5.50
2018-06-27T08:53:51.479Z,5.90
2018-06-27T08:56:19.759Z,5.13
2018-06-27T08:58:48.310Z,4.67
2018-06-27T09:01:17.030Z,4.53
2018-06-27T09:03:45.554Z,4.90
2018-06-27T09:06:14.050Z,4.60
2018-06-27T09:08:42.555Z,5.87
2018-06-27T09:11:11.090Z,4.27
2018-06-27T09:13:39.690Z,3.73
2018-06-27T09:16:08.262Z,3.90
2018-06-27T09:18:36.815Z,4.40
2018-06-27T09:21:05.318Z,4.10
2018-06-27T09:23:33.783Z,5.70
2018-06-27T09:26:02.325Z,4.10
2018-06-27T09:28:30.802Z,4.80
2018-06-27T09:30:59.287Z,3.63
2018-06-27T09:33:27.787Z,4.67
2018-06-27T09:35:57.620Z,4.90
2018-06-27T09:38:26.093Z,5.33
2018-06-27T09:40:54.623Z,5.77
2018-06-27T09:43:23.131Z,3.60
2018-06-27T09:45:51.671Z,4.13
2018-06-27T09:48:20.692Z,5.30
2018-06-27T09:50:49.196Z,4.40
2018-06-27T09:53:17.699Z,3.37
2018-06-27T09:55:46.196Z,5.07
2018-06-27T09:58:14.905Z,2.97
2018-06-27T10:00:43.446Z,4.27
2018-06-27T10:03:12.050Z,4.03
2018-06-27T10:05:40.522Z,3.27
2018-06-27T10:08:09.183Z,3.50
2018-06-27T10:10:37.708Z,3.50
2018-06-27T10:13:06.193Z,3.23
2018-06-27T10:15:34.674Z,3.27
2018-06-27T10:18:03.254Z,3.47
2018-06-27T10:20:31.790Z,3.33
2018-06-27T10:23:00.347Z,3.43
2018-06-27T10:25:28.823Z,4.63
2018-06-27T10:27:57.322Z,3.20
2018-06-27T10:30:25.899Z,3.30
2018-06-27T10:32:54.442Z,3.40
2018-06-27T10:35:22.940Z,7.30
2018-06-27T10:37:51.455Z,3.70
2018-06-27T10:40:20.235Z,3.83
2018-06-27T10:42:48.746Z,4.43
2018-06-27T10:45:17.343Z,3.37
2018-06-27T10:47:45.894Z,3.40
2018-06-27T10:50:14.354Z,3.83
2018-06-27T10:52:42.887Z,3.03
2018-06-27T10:55:16.594Z,3.00
2018-06-27T10:57:45.237Z,2.73
2018-06-27T11:00:13.759Z,2.43
2018-06-27T11:02:42.274Z,3.00
2018-06-27T11:05:10.761Z,3.70
2018-06-27T11:07:39.285Z,3.63
2018-06-27T11:10:07.827Z,2.80
2018-06-27T11:12:36.371Z,2.70
2018-06-27T11:15:05.284Z,4.50
2018-06-27T11:17:33.799Z,3.33
2018-06-27T11:20:02.280Z,2.50
2018-06-27T11:22:30.761Z,3.90
2018-06-27T11:24:59.318Z,3.03
2018-06-27T11:27:27.860Z,3.10
2018-06-27T11:29:56.366Z,2.90
2018-06-27T11:32:25.664Z,2.53
2018-06-27T11:34:54.200Z,3.60
2018-06-27T11:37:22.686Z,2.50
2018-06-27T11:39:51.374Z,3.97
2018-06-27T11:42:19.910Z,2.70
2018-06-27T11:44:48.429Z,2.50
2018-06-27T11:47:17.059Z,2.40
2018-06-27T11:49:45.597Z,2.80
2018-06-27T11:52:14.080Z,2.90
2018-06-27T11:54:42.562Z,2.63
2018-06-27T11:57:11.295Z,3.57
2018-06-27T11:59:39.785Z,3.43
2018-06-27T12:02:08.309Z,3.20
2018-06-27T12:04:36.880Z,3.17
2018-06-27T12:07:05.379Z,3.00
2018-06-27T12:09:33.862Z,3.40
2018-06-27T12:12:02.391Z,3.23
2018-06-27T12:14:30.870Z,3.40
2018-06-27T12:16:59.600Z,3.57
2018-06-27T12:19:28.093Z,4.00
2018-06-27T12:21:56.581Z,5.43
2018-06-27T12:24:25.086Z,3.40
2018-06-27T12:26:53.622Z,3.63
2018-06-27T12:29:21.786Z,5.63
2018-06-27T12:31:50.246Z,3.30
2018-06-27T12:34:18.781Z,3.80
2018-06-27T12:36:47.291Z,4.33
2018-06-27T12:39:15.799Z,3.80
2018-06-27T12:41:44.275Z,3.97
2018-06-27T12:44:12.776Z,4.00
2018-06-27T12:46:41.418Z,3.87
2018-06-27T12:49:09.967Z,4.20
2018-06-27T12:51:38.474Z,5.17
2018-06-27T12:54:06.961Z,4.20
2018-06-27T12:56:35.479Z,3.70
2018-06-27T12:59:04.012Z,4.50
2018-06-27T13:01:32.642Z,4.73
2018-06-27T13:04:01.175Z,4.30
2018-06-27T13:06:29.680Z,4.50
2018-06-27T13:08:58.275Z,4.60
2018-06-27T13:11:26.744Z,4.10
2018-06-27T13:13:55.242Z,4.27
2018-06-27T13:16:23.811Z,4.30
2018-06-27T13:18:52.282Z,4.40
2018-06-27T13:21:20.819Z,4.67
2018-06-27T13:23:49.385Z,5.17
2018-06-27T13:26:17.854Z,4.93
2018-06-27T13:28:46.434Z,6.13
2018-06-27T13:31:15.019Z,5.60
2018-06-27T13:33:43.579Z,6.53
2018-06-27T13:36:12.158Z,7.30
2018-06-27T13:38:40.951Z,5.20
2018-06-27T13:41:09.531Z,6.03
2018-06-27T13:43:38.113Z,7.30
2018-06-27T13:46:06.663Z,7.40
2018-06-27T13:48:34.802Z,7.60
2018-06-27T13:51:03.315Z,9.93
2018-06-27T13:53:31.843Z,9.83
2018-06-27T13:56:00.357Z,8.83
2018-06-27T13:58:28.841Z,7.87
2018-06-27T14:00:57.334Z,9.20
2018-06-27T14:03:25.847Z,6.53
2018-06-27T14:05:54.466Z,7.60
2018-06-27T14:08:23.033Z,5.87
2018-06-27T14:10:51.537Z,5.47
2018-06-27T14:13:20.731Z,3.83
2018-06-27T14:15:49.215Z,5.10
2018-06-27T14:18:17.753Z,4.53
2018-06-27T14:20:46.388Z,9.27
2018-06-27T14:23:14.949Z,6.67
2018-06-27T14:25:43.412Z,4.87
2018-06-27T14:28:11.915Z,4.73
2018-06-27T14:30:40.398Z,5.57
2018-06-27T14:33:08.926Z,3.97
2018-06-27T14:35:37.460Z,8.93
2018-06-27T14:38:05.982Z,5.33
2018-06-27T14:40:34.504Z,4.53
2018-06-27T14:43:03.031Z,4.50
2018-06-27T14:45:31.489Z,4.60
2018-06-27T14:48:00.355Z,4.97
2018-06-27T14:50:28.874Z,4.47
2018-06-27T14:52:57.418Z,5.90
2018-06-27T14:55:25.931Z,6.17
2018-06-27T14:57:54.424Z,4.60
2018-06-27T15:00:23.055Z,5.57
2018-06-27T15:02:51.699Z,4.73
2018-06-27T15:05:20.191Z,5.83
2018-06-27T15:07:48.747Z,5.40
2018-06-27T15:10:17.402Z,4.63
2018-06-27T15:12:45.910Z,5.10
2018-06-27T15:15:14.398Z,4.90
2018-06-27T15:17:43.851Z,4.60
2018-06-27T15:20:12.385Z,4.83
2018-06-27T15:22:40.873Z,4.57
2018-06-27T15:25:09.372Z,6.87
2018-06-27T15:27:38.057Z,4.07
2018-06-27T15:30:07.572Z,5.40
2018-06-27T15:32:36.383Z,4.43
2018-06-27T15:35:05.853Z,4.70
2018-06-27T15:37:34.425Z,5.30
2018-06-27T15:40:03.026Z,4.47
2018-06-27T15:42:31.598Z,4.67
2018-06-27T15:45:00.147Z,4.80
2018-06-27T15:47:28.723Z,4.60
2018-06-27T15:49:57.272Z,4.60
2018-06-27T15:52:25.795Z,4.40
2018-06-27T15:54:54.357Z,5.00
2018-06-27T15:57:23.028Z,5.20
2018-06-27T15:59:53.935Z,7.13
2018-06-27T16:02:23.027Z,6.43
2018-06-27T16:04:51.578Z,5.37
2018-06-27T16:07:20.264Z,5.97
2018-06-27T16:09:50.219Z,5.87
2018-06-27T16:12:18.782Z,6.30
2018-06-27T16:14:47.517Z,7.50
2018-06-27T16:17:16.152Z,5.77
2018-06-27T16:19:44.541Z,5.53
2018-06-27T16:22:13.086Z,6.03
2018-06-27T16:24:41.657Z,9.00
2018-06-27T16:27:10.550Z,5.10
2018-06-27T16:29:39.055Z,5.47
2018-06-27T16:32:07.603Z,4.83
2018-06-27T16:34:36.114Z,6.87
2018-06-27T16:37:04.782Z,4.60
2018-06-27T16:39:33.510Z,4.60
2018-06-27T16:42:01.992Z,4.90
2018-06-27T16:44:30.551Z,8.37
2018-06-27T16:46:59.115Z,5.77
2018-06-27T16:49:27.718Z,4.63
2018-06-27T16:51:56.285Z,4.90
2018-06-27T16:54:24.960Z,4.80
2018-06-27T16:56:53.541Z,4.97
2018-06-27T16:59:22.134Z,5.03
2018-06-27T17:01:50.691Z,5.53
2018-06-27T17:04:19.316Z,4.90
2018-06-27T17:06:47.784Z,6.70
2018-06-27T17:09:16.298Z,5.00
2018-06-27T17:11:44.802Z,4.70
2018-06-27T17:14:13.352Z,4.77
2018-06-27T17:16:41.883Z,5.93
2018-06-27T17:19:10.416Z,4.27
2018-06-27T17:21:39.189Z,5.07
2018-06-27T17:24:07.896Z,5.67
2018-06-27T17:26:36.517Z,4.37
2018-06-27T17:29:05.009Z,5.33
2018-06-27T17:31:33.514Z,4.33
2018-06-27T17:34:02.014Z,5.70
2018-06-27T17:36:30.513Z,4.50
2018-06-27T17:38:59.223Z,4.20
2018-06-27T17:41:27.726Z,4.63
2018-06-27T17:43:56.231Z,6.93
2018-06-27T17:46:24.759Z,5.00
2018-06-27T17:48:53.258Z,5.83
2018-06-27T17:51:21.815Z,7.10
2018-06-27T17:53:50.365Z,4.67
2018-06-27T17:56:18.891Z,5.50
2018-06-27T17:58:47.374Z,4.43
2018-06-27T18:01:15.851Z,4.50
2018-06-27T18:03:44.587Z,4.40
2018-06-27T18:06:13.090Z,4.57
2018-06-27T18:08:41.697Z,5.97
2018-06-27T18:11:10.218Z,4.73
2018-06-27T18:13:38.690Z,4.70
2018-06-27T18:16:07.174Z,4.73
2018-06-27T18:18:35.735Z,4.93
2018-06-27T18:21:04.319Z,4.87
2018-06-27T18:23:32.860Z,5.07
2018-06-27T18:26:01.436Z,4.83
2018-06-27T18:28:29.962Z,5.17
2018-06-27T18:30:58.508Z,5.17
2018-06-27T18:33:27.237Z,5.33
2018-06-27T18:35:55.807Z,5.30
2018-06-27T18:38:24.351Z,5.20
2018-06-27T18:40:59.444Z,4.73
2018-06-27T18:43:28.023Z,7.37
2018-06-27T18:45:56.525Z,5.33
2018-06-27T18:48:25.145Z,5.13
2018-06-27T18:50:53.739Z,5.07
2018-06-27T18:53:22.290Z,6.03
2018-06-27T18:55:50.843Z,6.43
2018-06-27T18:58:20.368Z,5.73
2018-06-27T19:00:48.847Z,5.40
2018-06-27T19:03:17.355Z,5.40
2018-06-27T19:05:45.918Z,6.03
2018-06-27T19:08:14.523Z,5.43
2018-06-27T19:10:42.988Z,6.43
2018-06-27T19:13:11.503Z,5.97
2018-06-27T19:15:39.991Z,5.23
2018-06-27T19:18:08.588Z,5.43
2018-06-27T19:20:37.143Z,6.13
2018-06-27T19:23:05.630Z,5.90
2018-06-27T19:25:34.211Z,5.50
2018-06-27T19:28:02.863Z,5.40
2018-06-27T19:30:31.416Z,5.63
2018-06-27T19:32:59.987Z,6.63
2018-06-27T19:35:28.608Z,5.90
2018-06-27T19:37:57.112Z,5.67
2018-06-27T19:40:25.666Z,5.90
2018-06-27T19:42:54.180Z,6.20
2018-06-27T19:45:22.702Z,5.37
2018-06-27T19:47:51.227Z,6.63
2018-06-27T19:50:19.759Z,6.23
2018-06-27T19:52:48.313Z,6.37
2018-06-27T19:55:16.913Z,5.30
2018-06-27T19:57:45.473Z,6.63
2018-06-27T20:00:14.045Z,5.77
2018-06-27T20:02:42.623Z,6.30
2018-06-27T20:05:11.195Z,7.40
2018-06-27T20:07:39.825Z,5.50
2018-06-27T20:10:08.373Z,6.90
2018-06-27T20:12:36.885Z,5.87
2018-06-27T20:15:05.733Z,5.67
2018-06-27T20:17:34.210Z,8.27
2018-06-27T20:20:02.824Z,7.13
2018-06-27T20:22:31.337Z,7.33
2018-06-27T20:25:00.469Z,6.10
2018-06-27T20:27:29.087Z,6.43
2018-06-27T20:29:57.591Z,5.27
2018-06-27T20:32:26.039Z,5.27
2018-06-27T20:34:54.494Z,6.67
2018-06-27T20:37:23.012Z,6.33
2018-06-27T20:39:51.508Z,5.17
2018-06-27T20:42:20.559Z,5.23
2018-06-27T20:44:49.095Z,5.97
2018-06-27T20:47:17.663Z,6.10
2018-06-27T20:49:46.090Z,5.83
2018-06-27T20:52:14.591Z,5.87
2018-06-27T20:54:44.130Z,5.53
2018-06-27T20:57:12.603Z,5.43
2018-06-27T20:59:41.114Z,6.27
2018-06-27T21:02:09.630Z,5.90
2018-06-27T21:04:38.480Z,6.53
2018-06-27T21:07:07.140Z,5.43
2018-06-27T21:09:35.718Z,5.83
2018-06-27T21:12:04.403Z,8.87
2018-06-27T21:14:32.967Z,7.80
2018-06-27T21:17:01.511Z,6.27
2018-06-27T21:19:29.979Z,6.80
2018-06-27T21:21:58.439Z,7.53
2018-06-27T21:24:26.967Z,7.13
2018-06-27T21:26:55.466Z,6.50
2018-06-27T21:29:24.046Z,6.23
2018-06-27T21:31:52.547Z,6.63
2018-06-27T21:34:21.074Z,9.23
2018-06-27T21:36:49.545Z,7.03
2018-06-27T21:39:18.008Z,7.93
2018-06-27T21:41:46.729Z,7.03
2018-06-27T21:44:15.234Z,7.43
2018-06-27T21:46:43.715Z,7.97
2018-06-27T21:49:12.226Z,7.83
2018-06-27T21:51:40.730Z,8.93
2018-06-27T21:54:09.250Z,7.20
2018-06-27T21:56:37.484Z,7.83
2018-06-27T21:59:05.974Z,8.10
2018-06-27T22:01:34.451Z,7.73
2018-06-27T22:04:02.967Z,8.13
2018-06-27T22:06:31.430Z,8.27
2018-06-27T22:09:00.041Z,8.00
2018-06-27T22:11:28.459Z,7.90
2018-06-27T22:13:56.943Z,7.80
2018-06-27T22:16:25.457Z,8.20
2018-06-27T22:18:53.915Z,9.77
2018-06-27T22:21:22.403Z,8.97
2018-06-27T22:23:50.978Z,7.77
2018-06-27T22:26:19.455Z,8.27
2018-06-27T22:28:47.613Z,8.37
2018-06-27T22:31:16.279Z,7.83
2018-06-27T22:33:44.750Z,7.97
2018-06-27T22:36:13.379Z,8.27
2018-06-27T22:38:41.894Z,8.27
2018-06-27T22:41:10.378Z,8.13
2018-06-27T22:43:38.896Z,8.83
2018-06-27T22:46:07.386Z,7.97
2018-06-27T22:48:35.850Z,8.47
2018-06-27T22:51:04.354Z,8.80
2018-06-27T22:53:32.871Z,8.33
2018-06-27T22:56:01.033Z,8.40
2018-06-27T22:58:29.502Z,9.23
2018-06-27T23:00:57.974Z,8.73
2018-06-27T23:03:26.435Z,9.77
2018-06-27T23:05:55.039Z,8.90
2018-06-27T23:08:23.530Z,9.27
2018-06-27T23:10:52.213Z,9.73
2018-06-27T23:13:20.674Z,11.20
2018-06-27T23:15:49.214Z,10.30
2018-06-27T23:18:17.832Z,9.67
2018-06-27T23:20:46.003Z,10.70
2018-06-27T23:23:14.539Z,10.33
2018-06-27T23:25:42.995Z,10.03
2018-06-27T23:28:11.456Z,10.53
2018-06-27T23:30:39.943Z,9.47
2018-06-27T23:33:08.418Z,9.93
2018-06-27T23:35:36.965Z,10.50
2018-06-27T23:38:05.430Z,9.27
2018-06-27T23:40:33.922Z,9.50
2018-06-27T23:43:02.434Z,10.73
2018-06-27T23:45:30.987Z,12.03
2018-06-27T23:47:59.494Z,10.30
2018-06-27T23:50:27.943Z,11.43
2018-06-27T23:52:56.448Z,10.97
2018-06-27T23:55:24.990Z,10.07
2018-06-27T23:57:53.515Z,10.30
